Time;durP1;ratioP1;P1;durP2;ratioP2;P2;SDS_P1;SDS_P2;PMS_P1;PMS_P2;Temp;Humidity;BMP_temperature;BMP_pressure;BME280_temperature;BME280_humidity;BME280_pressure;Samples;Min_cycle;Max_cycle;Signal;HPM_P1;HPM_P2
2022/12/09 00:01:56;;;;;;;194.65;127.93;;;205.50;2252.80;;;;;;4990216;28;20408;-59
2022/12/09 00:04:22;;;;;;;291.70;199.25;;;205.40;2150.40;;;;;;4990175;28;20030;-60
2022/12/09 00:06:48;;;;;;;331.70;231.35;;;205.40;2252.80;;;;;;4990021;28;20511;-59
2022/12/09 00:09:14;;;;;;;398.00;276.55;;;205.30;2252.80;;;;;;4990184;28;20049;-68
2022/12/09 00:11:41;;;;;;;398.48;290.95;;;205.20;2252.80;;;;;;4990946;28;20015;-59
2022/12/09 00:14:08;;;;;;;390.95;273.15;;;205.20;2252.80;;;;;;4993562;28;20677;-59
2022/12/09 00:16:33;;;;;;;420.27;285.83;;;205.10;2252.80;;;;;;4993389;28;20031;-59
2022/12/09 00:18:59;;;;;;;324.08;222.57;;;205.20;2252.80;;;;;;4993708;28;20033;-59
2022/12/09 00:21:33;;;;;;;284.63;202.00;;;205.20;2252.80;;;;;;4993335;28;20477;-66
2022/12/09 00:24:02;;;;;;;306.75;213.32;;;205.20;2252.80;;;;;;4993793;28;20041;-59
2022/12/09 00:26:27;;;;;;;229.32;144.00;;;205.30;2252.80;;;;;;4993415;28;20026;-59
2022/12/09 00:28:55;;;;;;;211.82;134.13;;;205.30;2252.80;;;;;;4993366;28;20117;-59
2022/12/09 00:31:23;;;;;;;152.52;103.28;;;205.30;2252.80;;;;;;4993373;28;20023;-60
2022/12/09 00:33:50;;;;;;;76.85;46.13;;;205.30;2252.80;;;;;;4993356;28;20063;-59
2022/12/09 00:36:18;;;;;;;87.45;54.65;;;205.20;2252.80;;;;;;4993167;28;20030;-59
2022/12/09 00:38:45;;;;;;;74.72;48.20;;;205.20;2252.80;;;;;;4993356;28;20034;-60
2022/12/09 00:41:12;;;;;;;83.00;54.40;;;205.20;2252.80;;;;;;4993136;28;20022;-60
2022/12/09 00:43:38;;;;;;;63.13;42.15;;;205.20;2252.80;;;;;;4993143;28;20552;-59
2022/12/09 00:46:04;;;;;;;94.07;58.35;;;205.20;2227.20;;;;;;4992920;28;20026;-59
2022/12/09 00:48:30;;;;;;;114.07;74.07;;;205.20;2252.80;;;;;;4992984;28;20496;-60
2022/12/09 00:50:56;;;;;;;109.97;72.32;;;205.20;2252.80;;;;;;4992964;28;20026;-67
2022/12/09 00:53:22;;;;;;;149.32;89.10;;;205.30;2252.80;;;;;;4992892;28;20023;-60
2022/12/09 00:55:47;;;;;;;119.60;75.38;;;205.30;2252.80;;;;;;4992860;28;20077;-59
2022/12/09 00:58:13;;;;;;;106.50;64.43;;;205.30;2252.80;;;;;;4992982;28;20095;-59
2022/12/09 01:00:40;;;;;;;125.10;77.47;;;205.40;2252.80;;;;;;4992949;28;20015;-59
2022/12/09 01:03:05;;;;;;;266.10;137.20;;;205.30;2252.80;;;;;;4992867;28;20034;-59
2022/12/09 01:05:35;;;;;;;423.80;209.38;;;205.30;2252.80;;;;;;4992558;28;20031;-60
2022/12/09 01:08:00;;;;;;;74.30;45.17;;;205.40;2252.80;;;;;;4992372;28;20038;-60
2022/12/09 01:10:26;;;;;;;45.78;29.90;;;205.40;2252.80;;;;;;4992696;28;20461;-60
2022/12/09 01:12:52;;;;;;;56.40;33.85;;;205.50;2252.80;;;;;;4992635;28;20417;-59
2022/12/09 01:15:17;;;;;;;150.48;81.10;;;205.50;2252.80;;;;;;4992604;28;20358;-60
2022/12/09 01:17:43;;;;;;;72.25;49.17;;;205.50;2252.80;;;;;;4992576;28;20026;-60
2022/12/09 01:20:09;;;;;;;46.92;32.35;;;205.60;2252.80;;;;;;4992584;28;20049;-59
2022/12/09 01:22:35;;;;;;;37.08;24.13;;;205.60;2252.80;;;;;;4992164;28;20069;-59
2022/12/09 01:25:02;;;;;;;43.15;26.73;;;205.70;2252.80;;;;;;4991678;28;20065;-60
2022/12/09 01:27:31;;;;;;;95.80;47.38;;;205.70;2252.80;;;;;;4992100;28;20062;-59
2022/12/09 01:29:57;;;;;;;136.13;71.45;;;205.70;2252.80;;;;;;4992212;28;20049;-60
2022/12/09 01:32:22;;;;;;;88.10;45.97;;;205.70;2252.80;;;;;;4992134;28;20061;-67
2022/12/09 01:34:48;;;;;;;182.05;110.15;;;205.70;2252.80;;;;;;4992300;28;20034;-59
2022/12/09 01:37:14;;;;;;;65.50;48.83;;;230.40;2252.80;;;;;;4991858;28;20109;-60
2022/12/09 01:39:40;;;;;;;48.75;43.13;;;230.40;2252.80;;;;;;4992192;28;20038;-59
2022/12/09 01:42:06;;;;;;;46.63;30.58;;;230.40;2252.80;;;;;;4991870;28;20031;-59
2022/12/09 01:44:33;;;;;;;65.13;39.42;;;230.40;2252.80;;;;;;4991868;28;20119;-60
2022/12/09 01:47:00;;;;;;;78.82;42.85;;;205.70;2252.80;;;;;;4991915;28;20469;-60
2022/12/09 01:49:33;;;;;;;62.03;37.15;;;205.60;2252.80;;;;;;4991878;28;20038;-60
2022/12/09 01:52:07;;;;;;;75.18;41.05;;;205.60;2252.80;;;;;;4991870;28;20485;-67
2022/12/09 01:54:33;;;;;;;119.65;61.78;;;205.50;2252.80;;;;;;4991694;28;20555;-60
2022/12/09 01:56:59;;;;;;;38.83;25.73;;;205.50;2252.80;;;;;;4991761;28;20046;-63
2022/12/09 01:59:26;;;;;;;135.73;71.15;;;205.50;2252.80;;;;;;4991710;28;20576;-66
2022/12/09 02:01:56;;;;;;;41.90;26.42;;;205.40;2252.80;;;;;;4988103;28;20027;-59
2022/12/09 02:04:22;;;;;;;19.02;12.48;;;205.40;2252.80;;;;;;4979802;28;20018;-63
2022/12/09 02:06:48;;;;;;;21.13;13.80;;;205.50;2252.80;;;;;;4981538;28;20435;-59
2022/12/09 02:09:13;;;;;;;119.70;63.40;;;205.60;2252.80;;;;;;4980089;28;20031;-63
2022/12/09 02:11:59;;;;;;;46.33;28.00;;;205.40;2252.80;;;;;;4980073;28;20508;-62
2022/12/09 02:14:40;;;;;;;62.63;36.90;;;205.30;2252.80;;;;;;4980718;28;20088;-59
2022/12/09 02:17:42;;;;;;;43.67;24.55;;;205.30;2252.80;;;;;;4981115;28;20030;-65
2022/12/09 02:20:14;;;;;;;42.13;24.58;;;205.20;2252.80;;;;;;4981148;28;20483;-67
2022/12/09 02:22:44;;;;;;;46.13;38.40;;;205.30;2252.80;;;;;;4980551;28;20038;-66
2022/12/09 02:25:25;;;;;;;49.17;28.45;;;205.40;2252.80;;;;;;4976814;28;20023;-67
2022/12/09 02:27:53;;;;;;;67.55;46.38;;;205.50;1894.40;;;;;;4976682;28;20126;-66
2022/12/09 02:30:22;;;;;;;47.90;34.03;;;205.50;2252.80;;;;;;4980162;28;20038;-64
2022/12/09 02:33:01;;;;;;;62.65;39.78;;;205.50;2252.80;;;;;;4981119;28;20058;-60
2022/12/09 02:35:34;;;;;;;45.50;30.42;;;205.50;2252.80;;;;;;4980783;28;20018;-65
2022/12/09 02:38:04;;;;;;;71.15;42.20;;;205.50;2252.80;;;;;;4980471;28;20043;-59
2022/12/09 02:40:51;;;;;;;85.63;52.42;;;205.30;2252.80;;;;;;4979026;28;20114;-60
2022/12/09 02:43:21;;;;;;;104.63;64.75;;;205.30;2252.80;;;;;;4978413;28;20023;-60
2022/12/09 02:45:48;;;;;;;79.45;54.22;;;205.20;2252.80;;;;;;4978845;28;20015;-60
2022/12/09 02:48:17;;;;;;;108.70;68.57;;;205.00;2252.80;;;;;;4990967;28;20042;-59
2022/12/09 02:50:45;;;;;;;79.47;50.65;;;205.00;2252.80;;;;;;4990611;28;20089;-60
2022/12/09 02:53:13;;;;;;;75.18;49.95;;;205.20;2252.80;;;;;;4990841;28;20456;-59
2022/12/09 02:55:42;;;;;;;89.97;55.92;;;205.10;2252.80;;;;;;4990850;28;20026;-60
2022/12/09 02:58:08;;;;;;;120.97;72.25;;;205.20;2252.80;;;;;;4990948;28;20427;-65
2022/12/09 03:00:33;;;;;;;105.43;63.70;;;205.20;2252.80;;;;;;4990459;28;20022;-60
2022/12/09 03:03:02;;;;;;;57.47;37.00;;;205.20;2252.80;;;;;;4990823;28;20503;-66
2022/12/09 03:06:09;;;;;;;50.05;33.97;;;205.30;2252.80;;;;;;4990821;28;20023;-60
2022/12/09 03:08:40;;;;;;;53.38;34.58;;;205.30;2252.80;;;;;;4911585;29;20578;-60
2022/12/09 03:11:06;;;;;;;29.92;19.85;;;205.30;2252.80;;;;;;4911839;29;20059;-59
2022/12/09 03:14:02;;;;;;;53.80;30.50;;;205.30;2252.80;;;;;;4911605;29;20076;-60
2022/12/09 03:16:45;;;;;;;36.78;22.60;;;205.40;2252.80;;;;;;4911508;29;20574;-58
2022/12/09 03:19:38;;;;;;;57.17;36.80;;;230.40;2252.80;;;;;;4911748;29;20032;-59
2022/12/09 03:22:11;;;;;;;59.22;39.40;;;205.70;2252.80;;;;;;4911443;29;20438;-60
2022/12/09 03:24:51;;;;;;;61.90;39.83;;;205.50;2252.80;;;;;;4911719;29;20488;-63
2022/12/09 03:27:27;;;;;;;39.30;27.52;;;205.50;2252.80;;;;;;4911628;29;20040;-59
2022/12/09 03:29:56;;;;;;;38.85;26.40;;;205.70;2252.80;;;;;;4911368;29;20040;-60
2022/12/09 03:32:25;;;;;;;30.45;17.77;;;205.70;2252.80;;;;;;4911561;29;20112;-61
2022/12/09 03:34:57;;;;;;;32.80;17.80;;;230.60;2252.80;;;;;;4911654;29;20060;-63
2022/12/09 03:37:23;;;;;;;35.15;19.67;;;230.70;2048.00;;;;;;4911464;29;20476;-60
2022/12/09 03:39:50;;;;;;;42.00;23.33;;;230.90;2252.80;;;;;;4911731;29;20113;-59
2022/12/09 03:42:29;;;;;;;62.75;32.13;;;231.00;2252.80;;;;;;4941482;28;20520;-59
2022/12/09 03:45:06;;;;;;;25.10;12.98;;;231.10;2252.80;;;;;;4990258;28;20231;-60
2022/12/09 03:47:32;;;;;;;33.47;21.33;;;231.20;2252.80;;;;;;4992314;28;20485;-60
2022/12/09 03:49:58;;;;;;;28.45;18.25;;;231.30;2252.80;;;;;;4994112;28;20048;-59
2022/12/09 03:52:38;;;;;;;20.38;12.75;;;231.20;2252.80;;;;;;4994137;28;20101;-60
2022/12/09 03:55:15;;;;;;;13.50;6.95;;;231.30;2252.80;;;;;;4993851;28;20540;-60
2022/12/09 03:57:44;;;;;;;18.35;12.18;;;256.00;2252.80;;;;;;4993699;28;20125;-60
2022/12/09 04:00:10;;;;;;;15.18;9.60;;;256.10;2252.80;;;;;;4993964;28;20030;-59
2022/12/09 04:02:36;;;;;;;12.50;8.38;;;256.00;2252.80;;;;;;4994213;28;20077;-59
2022/12/09 04:05:01;;;;;;;10.68;5.30;;;256.10;2252.80;;;;;;4993674;28;20544;-60
2022/12/09 04:07:27;;;;;;;19.88;9.07;;;256.20;2252.80;;;;;;4993847;28;20134;-60
2022/12/09 04:09:53;;;;;;;15.18;8.50;;;256.20;2252.80;;;;;;4993817;28;20057;-60
2022/12/09 04:12:18;;;;;;;16.33;10.18;;;256.30;2252.80;;;;;;4993896;28;20050;-66
2022/12/09 04:14:44;;;;;;;29.17;13.60;;;256.40;2252.80;;;;;;4993595;28;20110;-59
2022/12/09 04:17:10;;;;;;;31.33;17.67;;;256.40;2252.80;;;;;;4993612;28;20022;-59
2022/12/09 04:19:36;;;;;;;29.17;17.75;;;256.50;2252.80;;;;;;4993757;28;20036;-59
2022/12/09 04:22:02;;;;;;;30.00;18.25;;;256.50;2252.80;;;;;;4993573;28;20101;-59
2022/12/09 04:24:28;;;;;;;21.20;10.05;;;256.50;2252.80;;;;;;4993653;28;20029;-59
2022/12/09 04:26:54;;;;;;;14.48;9.60;;;256.60;2252.80;;;;;;4993462;28;20101;-60
2022/12/09 04:29:20;;;;;;;7.63;4.93;;;256.70;2252.80;;;;;;4993516;28;20038;-60
2022/12/09 04:31:45;;;;;;;22.02;14.48;;;256.60;2252.80;;;;;;4993415;28;20076;-59
2022/12/09 04:34:11;;;;;;;60.92;41.13;;;256.60;2252.80;;;;;;4993353;28;20041;-60
2022/12/09 04:36:37;;;;;;;99.05;66.47;;;256.40;2252.80;;;;;;4993268;28;20023;-59
2022/12/09 04:39:03;;;;;;;195.00;146.57;;;256.10;2252.80;;;;;;4993090;28;20030;-60
2022/12/09 04:41:29;;;;;;;180.75;129.18;;;231.00;2252.80;;;;;;4993286;28;20034;-59
2022/12/09 04:43:54;;;;;;;115.18;81.63;;;230.70;2252.80;;;;;;4993073;28;20030;-63
2022/12/09 04:46:20;;;;;;;96.72;69.13;;;230.60;2252.80;;;;;;4993214;28;20461;-65
2022/12/09 04:48:46;;;;;;;86.07;58.47;;;230.50;2252.80;;;;;;4993122;28;20034;-59
2022/12/09 04:51:12;;;;;;;106.82;72.22;;;230.80;2252.80;;;;;;4993023;28;20030;-60
2022/12/09 04:53:38;;;;;;;73.82;49.20;;;230.90;2252.80;;;;;;4993177;28;20385;-58
2022/12/09 04:56:08;;;;;;;56.00;39.72;;;231.00;2252.80;;;;;;4992757;28;20046;-60
2022/12/09 04:58:33;;;;;;;134.40;91.82;;;231.10;2252.80;;;;;;4991550;28;20036;-60
2022/12/09 05:01:08;;;;;;;169.50;122.38;;;231.00;2252.80;;;;;;4992899;28;20106;-59
2022/12/09 05:03:34;;;;;;;163.00;115.10;;;230.90;2252.80;;;;;;4992875;28;20085;-59
2022/12/09 05:06:06;;;;;;;91.53;58.55;;;230.80;2252.80;;;;;;4992656;28;20046;-64
2022/12/09 05:08:32;;;;;;;65.60;44.72;;;230.90;2252.80;;;;;;4992523;28;20038;-60
2022/12/09 05:10:58;;;;;;;52.97;34.95;;;231.00;2252.80;;;;;;4992868;28;20408;-60
2022/12/09 05:13:26;;;;;;;33.58;23.80;;;231.20;2252.80;;;;;;4992696;28;20027;-59
2022/12/09 05:15:53;;;;;;;22.95;15.60;;;256.00;2252.80;;;;;;4992621;28;20018;-59
2022/12/09 05:18:19;;;;;;;20.38;12.88;;;256.30;2252.80;;;;;;4992659;28;20034;-64
2022/12/09 05:20:45;;;;;;;135.18;90.03;;;256.40;2252.80;;;;;;4992341;28;20061;-60
2022/12/09 05:23:11;;;;;;;150.82;102.97;;;256.40;2252.80;;;;;;4992405;28;20081;-59
2022/12/09 05:25:36;;;;;;;70.43;46.40;;;256.00;2252.80;;;;;;4992390;28;20114;-66
2022/12/09 05:28:02;;;;;;;84.75;53.63;;;231.30;2252.80;;;;;;4992194;28;20045;-60
2022/12/09 05:30:28;;;;;;;81.47;54.55;;;231.10;2252.80;;;;;;4992270;28;20019;-59
2022/12/09 05:32:53;;;;;;;81.75;58.45;;;231.00;2252.80;;;;;;4992399;28;20023;-60
2022/12/09 05:35:19;;;;;;;74.35;48.63;;;231.00;2252.80;;;;;;4992137;28;20022;-63
2022/12/09 05:37:45;;;;;;;74.45;48.20;;;230.80;2252.80;;;;;;4992060;28;20041;-59
2022/12/09 05:40:11;;;;;;;76.32;55.55;;;230.80;2252.80;;;;;;4992215;28;20662;-67
2022/12/09 05:42:36;;;;;;;485.70;288.67;;;230.90;2252.80;;;;;;4992000;28;20129;-59
2022/12/09 05:45:02;;;;;;;181.45;104.70;;;231.10;2252.80;;;;;;4991886;28;20027;-60
2022/12/09 05:47:28;;;;;;;117.85;67.38;;;231.00;2252.80;;;;;;4992033;28;20030;-59
2022/12/09 05:49:54;;;;;;;126.65;78.05;;;231.20;2252.80;;;;;;4992111;28;20073;-59
2022/12/09 05:52:20;;;;;;;92.25;55.30;;;256.20;2252.80;;;;;;4992204;28;20058;-60
2022/12/09 05:54:45;;;;;;;53.95;29.60;;;256.60;2252.80;;;;;;4991842;28;20041;-65
2022/12/09 05:57:11;;;;;;;64.60;37.40;;;256.80;2252.80;;;;;;4991639;28;20108;-59
2022/12/09 05:59:37;;;;;;;52.50;38.97;;;256.70;2252.80;;;;;;4991919;28;20066;-60
2022/12/09 06:02:02;;;;;;;56.35;40.28;;;256.40;2252.80;;;;;;4991408;28;20050;-60
2022/12/09 06:04:28;;;;;;;46.55;33.30;;;256.30;2252.80;;;;;;4991727;28;20048;-60
2022/12/09 06:06:54;;;;;;;68.30;50.03;;;256.20;2252.80;;;;;;4991554;28;20026;-60
2022/12/09 06:09:20;;;;;;;67.45;47.72;;;256.20;2252.80;;;;;;4991346;28;20473;-65
2022/12/09 06:11:45;;;;;;;252.90;184.38;;;256.30;2252.80;;;;;;4991695;28;20027;-59
2022/12/09 06:14:11;;;;;;;175.52;126.15;;;256.30;2252.80;;;;;;4991592;28;20372;-60
2022/12/09 06:16:37;;;;;;;87.70;59.22;;;256.30;2252.80;;;;;;4991456;28;20069;-60
2022/12/09 06:19:04;;;;;;;142.35;82.70;;;256.20;2252.80;;;;;;4991228;28;20054;-60
2022/12/09 06:21:29;;;;;;;70.13;48.88;;;256.20;2252.80;;;;;;4991415;28;20026;-65
2022/12/09 06:23:55;;;;;;;218.02;98.93;;;256.30;2252.80;;;;;;4991219;28;20165;-64
2022/12/09 06:26:24;;;;;;;159.80;91.03;;;256.40;2252.80;;;;;;4991541;28;20073;-64
2022/12/09 06:28:51;;;;;;;71.90;43.10;;;256.30;2252.80;;;;;;4991355;28;20037;-59
2022/12/09 06:31:17;;;;;;;109.30;56.55;;;256.50;2252.80;;;;;;4991146;28;20026;-60
2022/12/09 06:33:43;;;;;;;144.25;68.35;;;256.50;2252.80;;;;;;4990958;28;20469;-60
2022/12/09 06:36:09;;;;;;;59.38;44.67;;;256.60;2252.80;;;;;;4991019;28;20045;-59
2022/12/09 06:38:35;;;;;;;65.43;47.13;;;256.60;2252.80;;;;;;4990845;28;20469;-59
2022/12/09 06:41:11;;;;;;;115.88;83.35;;;256.60;2252.80;;;;;;4991160;28;20026;-59
2022/12/09 06:43:38;;;;;;;111.25;74.80;;;256.60;2252.80;;;;;;4990990;28;20026;-59
2022/12/09 06:46:13;;;;;;;77.90;53.75;;;256.60;2252.80;;;;;;4990602;28;20018;-60
2022/12/09 06:48:39;;;;;;;87.80;58.20;;;256.60;2252.80;;;;;;4990783;28;20030;-59
2022/12/09 06:51:05;;;;;;;89.32;64.00;;;256.60;2252.80;;;;;;4990884;28;20069;-59
2022/12/09 06:53:30;;;;;;;76.97;55.88;;;256.70;2252.80;;;;;;4990947;28;20027;-67
2022/12/09 06:56:01;;;;;;;105.10;71.97;;;256.60;2252.80;;;;;;4990417;28;20401;-62
2022/12/09 06:58:27;;;;;;;149.05;102.75;;;256.50;2252.80;;;;;;4990714;28;20413;-59
2022/12/09 07:00:52;;;;;;;162.38;109.80;;;256.40;2252.80;;;;;;4990494;28;20077;-60
2022/12/09 07:03:18;;;;;;;140.70;107.07;;;256.40;2252.80;;;;;;4990944;28;20038;-59
2022/12/09 07:05:44;;;;;;;155.23;110.15;;;256.30;2252.80;;;;;;4990507;28;20556;-59
2022/12/09 07:08:09;;;;;;;173.40;125.63;;;256.20;2252.80;;;;;;4990683;28;20389;-59
2022/12/09 07:10:35;;;;;;;170.55;121.20;;;256.30;2252.80;;;;;;4990551;28;20077;-59
2022/12/09 07:13:01;;;;;;;130.40;93.20;;;256.30;2252.80;;;;;;4990551;28;20026;-65
2022/12/09 07:15:27;;;;;;;128.75;97.93;;;256.40;2252.80;;;;;;4990572;28;20033;-65
2022/12/09 07:17:52;;;;;;;100.57;74.72;;;256.50;2252.80;;;;;;4990378;28;20077;-65
2022/12/09 07:20:18;;;;;;;87.93;64.45;;;256.60;2252.80;;;;;;4990493;28;20022;-59
2022/12/09 07:22:44;;;;;;;85.78;60.40;;;256.70;2252.80;;;;;;4993094;28;20076;-60
2022/12/09 07:25:09;;;;;;;74.10;51.50;;;256.60;2252.80;;;;;;4994587;28;20113;-59
2022/12/09 07:27:35;;;;;;;92.90;65.97;;;256.70;2252.80;;;;;;4994391;28;20113;-64
2022/12/09 07:30:01;;;;;;;66.90;44.05;;;256.80;2252.80;;;;;;4994431;28;20030;-62
2022/12/09 07:32:27;;;;;;;50.78;33.42;;;256.90;2252.80;;;;;;4994385;28;20098;-60
2022/12/09 07:34:52;;;;;;;35.13;24.63;;;281.60;2278.40;;;;;;4994663;28;20122;-60
2022/12/09 07:37:18;;;;;;;61.70;41.10;;;281.70;2278.40;;;;;;4994302;28;20034;-66
2022/12/09 07:39:44;;;;;;;97.00;56.65;;;281.90;2278.40;;;;;;4994286;28;20583;-60
2022/12/09 07:42:09;;;;;;;50.78;34.72;;;282.20;2278.40;;;;;;4994359;28;20037;-60
2022/12/09 07:44:35;;;;;;;56.65;38.58;;;282.40;2278.40;;;;;;4994077;28;20038;-60
2022/12/09 07:47:01;;;;;;;58.47;39.33;;;282.50;2278.40;;;;;;4994340;28;20105;-60
2022/12/09 07:49:26;;;;;;;175.52;131.45;;;282.50;2278.40;;;;;;4994394;28;20042;-60
2022/12/09 07:51:52;;;;;;;188.23;145.25;;;282.30;2278.40;;;;;;4994086;28;20106;-60
2022/12/09 07:54:19;;;;;;;193.50;147.48;;;281.90;2278.40;;;;;;4994292;28;20076;-59
2022/12/09 07:56:45;;;;;;;186.50;140.27;;;281.80;2278.40;;;;;;4993134;28;20073;-60
2022/12/09 07:59:12;;;;;;;190.05;144.82;;;281.80;2278.40;;;;;;4992747;28;20069;-64
2022/12/09 08:01:38;;;;;;;173.65;133.80;;;281.70;2278.40;;;;;;4992820;28;20030;-61
2022/12/09 08:04:05;;;;;;;165.95;122.28;;;281.60;2278.40;;;;;;4992849;28;20019;-60
2022/12/09 08:06:32;;;;;;;164.07;125.72;;;281.60;2278.40;;;;;;4992333;28;20033;-55
2022/12/09 08:09:03;;;;;;;171.02;132.45;;;281.90;2278.40;;;;;;4992429;28;20038;-56
2022/12/09 08:11:30;;;;;;;188.35;139.13;;;282.10;2278.40;;;;;;4992656;28;20474;-56
2022/12/09 08:13:58;;;;;;;140.57;101.40;;;282.00;2278.40;;;;;;4992554;28;20396;-56
2022/12/09 08:16:24;;;;;;;236.18;167.82;;;281.70;2278.40;;;;;;4992226;28;20019;-57
2022/12/09 08:18:51;;;;;;;212.25;170.50;;;281.80;2278.40;;;;;;4992644;28;20034;-60
2022/12/09 08:21:21;;;;;;;271.38;193.00;;;281.80;2278.40;;;;;;4992549;28;20030;-56
2022/12/09 08:23:48;;;;;;;161.07;118.43;;;282.00;2278.40;;;;;;4992573;28;20022;-56
2022/12/09 08:26:15;;;;;;;110.72;82.60;;;282.00;2278.40;;;;;;4992142;28;20026;-56
2022/12/09 08:28:41;;;;;;;48.78;36.47;;;282.10;2278.40;;;;;;4991999;28;20042;-58
2022/12/09 08:31:13;;;;;;;57.10;38.15;;;282.20;2278.40;;;;;;4992326;28;20030;-58
2022/12/09 08:33:39;;;;;;;23.20;18.98;;;282.40;2278.40;;;;;;4992022;28;20037;-56
2022/12/09 08:36:22;;;;;;;50.80;39.40;;;307.20;2304.00;;;;;;4991992;28;20109;-56
2022/12/09 08:38:49;;;;;;;57.65;43.70;;;307.30;2304.00;;;;;;4990383;28;20558;-58
2022/12/09 08:41:20;;;;;;;102.85;74.85;;;307.40;2304.00;;;;;;4990800;28;20039;-55
2022/12/09 08:43:46;;;;;;;89.80;68.50;;;307.40;2304.00;;;;;;4988428;28;20066;-55
2022/12/09 08:46:12;;;;;;;102.72;72.75;;;307.30;2304.00;;;;;;4990332;28;20122;-61
2022/12/09 08:48:39;;;;;;;113.00;86.03;;;307.40;2304.00;;;;;;4990426;28;20125;-58
2022/12/09 08:51:07;;;;;;;51.47;39.78;;;307.60;2304.00;;;;;;4990428;28;20026;-59
2022/12/09 08:53:33;;;;;;;32.85;23.52;;;307.70;2304.00;;;;;;4990444;28;20081;-56
2022/12/09 08:56:06;;;;;;;79.93;57.60;;;307.90;2304.00;;;;;;4950901;28;1147317;-55
2022/12/09 08:58:32;;;;;;;72.93;51.83;;;307.90;2304.00;;;;;;4991292;28;20053;-59
2022/12/09 09:00:58;;;;;;;54.38;35.30;;;307.90;2304.00;;;;;;4991550;28;20272;-54
2022/12/09 09:03:24;;;;;;;93.20;71.97;;;308.10;2304.00;;;;;;4993086;28;20030;-55
2022/12/09 09:05:49;;;;;;;119.00;88.45;;;308.10;2304.00;;;;;;4992939;28;20113;-54
2022/12/09 09:08:15;;;;;;;107.95;80.40;;;307.80;2304.00;;;;;;4992469;28;20513;-55
2022/12/09 09:10:41;;;;;;;89.38;62.75;;;307.40;2304.00;;;;;;4992568;28;20050;-55
2022/12/09 09:13:07;;;;;;;99.90;67.45;;;307.40;2304.00;;;;;;4992704;28;20039;-58
2022/12/09 09:15:32;;;;;;;97.18;74.30;;;307.30;2304.00;;;;;;4992514;28;20529;-54
2022/12/09 09:17:58;;;;;;;105.50;82.25;;;307.30;2304.00;;;;;;4992533;28;20065;-54
2022/12/09 09:20:24;;;;;;;120.90;90.97;;;282.50;2278.40;;;;;;4992556;28;20038;-54
2022/12/09 09:22:49;;;;;;;110.75;83.65;;;282.30;2278.40;;;;;;4992569;28;20054;-54
2022/12/09 09:25:15;;;;;;;120.93;85.70;;;282.20;2278.40;;;;;;4992552;28;20026;-54
2022/12/09 09:27:41;;;;;;;93.68;66.70;;;282.40;2278.40;;;;;;4992249;28;20073;-56
2022/12/09 09:30:08;;;;;;;168.38;125.60;;;307.20;2304.00;;;;;;4992494;28;20062;-55
2022/12/09 09:32:34;;;;;;;163.15;125.47;;;307.20;2304.00;;;;;;4992391;28;20058;-55
2022/12/09 09:34:59;;;;;;;93.43;70.13;;;307.20;2304.00;;;;;;4992472;28;20077;-54
2022/12/09 09:37:25;;;;;;;60.40;42.00;;;307.50;2304.00;;;;;;4992002;28;20023;-58
2022/12/09 09:39:51;;;;;;;71.57;56.15;;;307.40;2304.00;;;;;;4992084;28;20041;-55
2022/12/09 09:42:22;;;;;;;60.35;45.70;;;307.50;2304.00;;;;;;4992157;28;20105;-54
2022/12/09 09:44:52;;;;;;;49.90;32.38;;;307.50;2304.00;;;;;;4991435;28;20026;-54
2022/12/09 09:47:40;;;;;;;81.25;61.05;;;307.60;2304.00;;;;;;4991964;28;20393;-59
2022/12/09 09:50:26;;;;;;;92.60;66.82;;;307.70;2304.00;;;;;;4992194;28;20476;-54
2022/12/09 09:52:53;;;;;;;92.85;65.43;;;307.80;2304.00;;;;;;4992017;28;20428;-55
2022/12/09 09:55:32;;;;;;;75.43;56.50;;;307.90;2304.00;;;;;;4992287;28;20027;-54
2022/12/09 09:58:20;;;;;;;88.28;63.75;;;307.90;2304.00;;;;;;4991951;28;20039;-55
2022/12/09 10:01:00;;;;;;;93.22;66.70;;;307.90;2304.00;;;;;;4991673;28;20480;-59
2022/12/09 10:03:40;;;;;;;102.85;72.10;;;308.00;2304.00;;;;;;4991711;28;20031;-54
2022/12/09 10:06:26;;;;;;;88.50;66.30;;;308.00;2304.00;;;;;;4991435;28;20026;-58
2022/12/09 10:09:09;;;;;;;102.88;77.10;;;307.80;2304.00;;;;;;4991449;28;20046;-54
2022/12/09 10:11:49;;;;;;;151.98;113.95;;;308.00;2304.00;;;;;;4991627;28;20022;-54
2022/12/09 10:14:33;;;;;;;181.07;138.00;;;308.00;2304.00;;;;;;4991672;28;20121;-54
2022/12/09 10:17:25;;;;;;;;;;;307.80;2304.00;;;;;;4991997;28;20038;-54
2022/12/09 10:20:01;;;;;;;155.35;117.43;;;307.90;2304.00;;;;;;4987810;28;19906;-54
2022/12/09 10:22:39;;;;;;;175.57;130.98;;;307.80;2304.00;;;;;;4991457;28;20095;-55
2022/12/09 10:25:25;;;;;;;188.88;146.85;;;307.90;2304.00;;;;;;4991366;28;20053;-55
2022/12/09 10:28:12;;;;;;;177.32;137.88;;;308.10;2304.00;;;;;;4991610;28;20537;-57
2022/12/09 10:30:38;;;;;;;171.23;131.93;;;332.80;2329.60;;;;;;4991368;28;20041;-59
2022/12/09 10:33:05;;;;;;;153.57;122.18;;;308.10;2304.00;;;;;;4991241;28;20027;-54
2022/12/09 10:35:31;;;;;;;177.43;133.75;;;307.90;2304.00;;;;;;4991270;28;20045;-55
2022/12/09 10:38:18;;;;;;;134.43;106.57;;;308.10;2304.00;;;;;;4991347;28;20030;-55
2022/12/09 10:43:33;;;;;;;152.18;120.80;;;307.90;2304.00;;;;;;4990871;28;20029;-54
2022/12/09 10:44:21;;;;;;;187.13;145.40;;;307.80;2304.00;;;;;;4958591;28;20034;-55
2022/12/09 10:46:47;;;;;;;186.57;143.00;;;308.00;2304.00;;;;;;4990996;28;20026;-54
2022/12/09 10:49:20;;;;;;;196.60;154.43;;;308.10;2304.00;;;;;;4990878;28;20455;-54
2022/12/09 10:51:51;;;;;;;192.98;151.65;;;332.90;2329.60;;;;;;4991019;28;20030;-55
2022/12/09 10:54:22;;;;;;;151.32;120.10;;;332.90;2329.60;;;;;;4990766;28;20113;-55
2022/12/09 10:57:00;;;;;;;135.82;101.05;;;333.00;2329.60;;;;;;4990590;28;20050;-54
2022/12/09 10:59:30;;;;;;;142.70;114.15;;;333.10;2329.60;;;;;;4990900;28;20369;-58
2022/12/09 11:02:08;;;;;;;150.68;119.97;;;333.30;2329.60;;;;;;4990841;28;20116;-55
2022/12/09 11:04:37;;;;;;;235.90;185.45;;;333.40;2329.60;;;;;;4990742;28;20026;-54
2022/12/09 11:07:11;;;;;;;225.23;180.13;;;333.40;2329.60;;;;;;4990577;28;20038;-55
2022/12/09 11:09:59;;;;;;;228.40;176.40;;;333.40;2329.60;;;;;;4990837;28;20613;-54
2022/12/09 11:12:29;;;;;;;247.80;193.88;;;333.40;2329.60;;;;;;4976858;28;20085;-56
2022/12/09 11:15:02;;;;;;;204.43;157.40;;;333.40;2329.60;;;;;;4990508;28;20031;-55
2022/12/09 11:17:31;;;;;;;194.70;150.27;;;333.40;2329.60;;;;;;4990964;28;20046;-54
2022/12/09 11:20:21;;;;;;;297.33;236.18;;;333.50;2329.60;;;;;;4990644;28;20038;-55
2022/12/09 11:22:59;;;;;;;184.93;140.25;;;333.60;2329.60;;;;;;4990696;28;20535;-56
2022/12/09 11:25:31;;;;;;;460.77;353.52;;;333.50;2329.60;;;;;;4990340;28;20088;-55
2022/12/09 11:28:29;;;;;;;415.67;322.85;;;333.40;2329.60;;;;;;4990634;28;20034;-55
2022/12/09 11:31:02;;;;;;;380.85;306.90;;;333.30;2329.60;;;;;;4989193;28;20110;-55
2022/12/09 11:33:46;;;;;;;313.42;258.58;;;333.20;2329.60;;;;;;4990512;28;20030;-55
2022/12/09 11:36:41;;;;;;;332.90;266.50;;;333.50;2329.60;;;;;;4990354;28;20108;-55
2022/12/09 11:39:22;;;;;;;271.52;224.38;;;333.30;2329.60;;;;;;4988619;28;20042;-54
2022/12/09 11:44:36;;;;;;;222.75;172.93;;;333.40;2329.60;;;;;;4990349;28;20049;-54
2022/12/09 11:47:06;;;;;;;214.30;176.82;;;333.50;2329.60;;;;;;4990099;28;20039;-54
2022/12/09 11:49:37;;;;;;;201.68;158.40;;;333.50;2329.60;;;;;;4990175;28;20039;-55
2022/12/09 11:52:18;;;;;;;225.23;180.02;;;333.70;2329.60;;;;;;4990409;28;20026;-54
2022/12/09 11:54:59;;;;;;;237.98;176.05;;;333.70;2329.60;;;;;;4990095;28;20369;-54
2022/12/09 11:57:59;;;;;;;130.15;102.95;;;333.70;2329.60;;;;;;4990065;28;20053;-57
2022/12/09 12:00:50;;;;;;;144.05;98.10;;;333.60;2329.60;;;;;;4911303;29;20036;-58
2022/12/09 12:03:30;;;;;;;126.03;89.60;;;333.40;2329.60;;;;;;4911176;29;20373;-55
2022/12/09 12:05:58;;;;;;;120.13;84.30;;;333.60;2329.60;;;;;;4910968;29;20063;-55
2022/12/09 12:08:45;;;;;;;135.73;92.05;;;333.70;2329.60;;;;;;4913030;29;20495;-59
2022/12/09 12:11:16;;;;;;;144.75;101.82;;;333.70;2329.60;;;;;;4914790;29;20180;-54